Time;durP1;ratioP1;P1;durP2;ratioP2;P2;SDS_P1;SDS_P2;PMS_P1;PMS_P2;Temp;Humidity;BMP_temperature;BMP_pressure;BME280_temperature;BME280_humidity;BME280_pressure;Samples;Min_cycle;Max_cycle;Signal;HPM_P1;HPM_P2
2023/04/17 00:01:27;;;;;;;3.47;1.30;;;;;;;;;;5012233;28;20065;-63
2023/04/17 00:03:53;;;;;;;2.05;1.08;;;;;;;;;;5011873;28;20485;-64
2023/04/17 00:06:18;;;;;;;2.03;1.10;;;;;;;;;;5012026;28;20087;-63
2023/04/17 00:08:44;;;;;;;4.40;1.30;;;;;;;;;;5011737;28;20054;-67
2023/04/17 00:11:09;;;;;;;1.98;1.30;;;;;;;;;;5012100;28;20073;-63
2023/04/17 00:13:35;;;;;;;3.45;1.30;;;;;;;;;;4998584;28;20041;-60
2023/04/17 00:16:01;;;;;;;3.38;1.38;;;;;;;;;;4992124;28;20033;-62
2023/04/17 00:18:26;;;;;;;2.42;1.02;;;;;;;;;;4991779;28;20038;-60
2023/04/17 00:20:52;;;;;;;2.72;1.20;;;;;;;;;;4992231;28;20109;-61
2023/04/17 00:23:18;;;;;;;2.72;1.30;;;;;;;;;;4991918;28;20517;-64
2023/04/17 00:25:43;;;;;;;2.92;1.20;;;;;;;;;;4992138;28;20066;-61
2023/04/17 00:28:08;;;;;;;3.60;1.15;;;;;;;;;;4991799;28;20363;-67
2023/04/17 00:30:34;;;;;;;3.00;1.48;;;;;;;;;;4991859;28;20040;-62
2023/04/17 00:32:59;;;;;;;2.60;1.10;;;;;;;;;;4991734;28;20126;-63
2023/04/17 00:35:24;;;;;;;2.00;1.20;;;;;;;;;;4991956;28;20022;-65
2023/04/17 00:37:50;;;;;;;2.90;1.40;;;;;;;;;;4992018;28;20034;-70
2023/04/17 00:40:15;;;;;;;2.25;1.20;;;;;;;;;;4991882;28;20125;-64
2023/04/17 00:42:41;;;;;;;2.28;1.17;;;;;;;;;;4991611;28;20514;-63
2023/04/17 00:45:09;;;;;;;2.65;1.42;;;;;;;;;;4991665;28;20037;-61
2023/04/17 00:47:35;;;;;;;2.78;1.13;;;;;;;;;;4991445;28;20105;-61
2023/04/17 00:50:01;;;;;;;1.83;1.20;;;;;;;;;;4991465;28;20109;-68
2023/04/17 00:52:28;;;;;;;2.63;1.20;;;;;;;;;;4991646;28;20026;-61
2023/04/17 00:54:55;;;;;;;2.60;1.10;;;;;;;;;;4991357;28;20386;-62
2023/04/17 00:57:22;;;;;;;2.92;1.13;;;;;;;;;;4991427;28;20037;-61
2023/04/17 00:59:48;;;;;;;4.60;1.20;;;;;;;;;;4991445;28;20030;-64
2023/04/17 01:02:15;;;;;;;4.32;1.50;;;;;;;;;;4991282;28;20517;-66
2023/04/17 01:04:41;;;;;;;2.05;1.38;;;;;;;;;;4990795;28;20410;-72
2023/04/17 01:07:06;;;;;;;3.88;1.70;;;;;;;;;;4991117;28;20029;-67
2023/04/17 01:09:32;;;;;;;3.47;1.80;;;;;;;;;;4990921;28;20109;-71
2023/04/17 01:12:21;;;;;;;2.22;1.50;;;;;;;;;;4991152;28;20160;-71
2023/04/17 01:14:50;;;;;;;2.83;1.70;;;;;;;;;;4991017;28;20022;-64
2023/04/17 01:17:18;;;;;;;3.55;1.90;;;;;;;;;;4991024;28;20146;-63
2023/04/17 01:19:44;;;;;;;3.75;1.90;;;;;;;;;;4990851;28;20635;-70
2023/04/17 01:22:09;;;;;;;3.60;1.80;;;;;;;;;;4990857;28;20038;-73
2023/04/17 01:24:35;;;;;;;3.85;1.60;;;;;;;;;;4990571;28;20037;-73
2023/04/17 01:27:02;;;;;;;5.30;1.67;;;;;;;;;;4990710;28;20037;-73
2023/04/17 01:29:27;;;;;;;3.33;1.80;;;;;;;;;;4990652;28;20038;-72
2023/04/17 01:31:52;;;;;;;3.92;1.83;;;;;;;;;;4990354;28;20537;-70
2023/04/17 01:34:18;;;;;;;3.95;1.88;;;;;;;;;;4990614;28;20553;-66
2023/04/17 01:36:43;;;;;;;3.50;1.83;;;;;;;;;;4990835;28;20030;-73
2023/04/17 01:39:08;;;;;;;4.25;2.00;;;;;;;;;;4990666;28;20034;-60
2023/04/17 01:41:35;;;;;;;3.80;1.75;;;;;;;;;;4990598;28;20091;-61
2023/04/17 01:44:00;;;;;;;6.32;1.70;;;;;;;;;;4990230;28;20023;-72
2023/04/17 01:46:26;;;;;;;2.85;1.70;;;;;;;;;;4990524;28;20109;-71
2023/04/17 01:48:51;;;;;;;5.20;2.10;;;;;;;;;;4990290;28;20022;-72
2023/04/17 01:51:16;;;;;;;2.53;1.60;;;;;;;;;;4990526;28;20394;-74
2023/04/17 01:53:42;;;;;;;3.45;2.10;;;;;;;;;;4990209;28;20030;-72
2023/04/17 01:56:07;;;;;;;2.60;1.70;;;;;;;;;;4990320;28;20030;-74
2023/04/17 01:58:33;;;;;;;5.47;1.80;;;;;;;;;;4990103;28;20054;-74
2023/04/17 02:00:58;;;;;;;5.13;2.00;;;;;;;;;;4990294;28;20084;-72
2023/04/17 02:03:24;;;;;;;4.15;2.10;;;;;;;;;;4990034;28;20031;-73
2023/04/17 02:05:52;;;;;;;3.33;1.85;;;;;;;;;;4990342;28;20081;-73
2023/04/17 02:08:17;;;;;;;3.38;1.90;;;;;;;;;;4990134;28;20055;-74
2023/04/17 02:10:43;;;;;;;4.30;1.95;;;;;;;;;;4990239;28;20050;-70
2023/04/17 02:13:09;;;;;;;4.50;1.77;;;;;;;;;;4989900;28;20030;-73
2023/04/17 02:15:36;;;;;;;3.55;1.90;;;;;;;;;;4990025;28;20022;-73
2023/04/17 02:18:02;;;;;;;4.05;1.88;;;;;;;;;;4989906;28;20568;-73
2023/04/17 02:20:28;;;;;;;4.70;1.90;;;;;;;;;;4990169;28;20034;-73
2023/04/17 02:22:54;;;;;;;3.45;1.75;;;;;;;;;;4990165;28;20018;-73
2023/04/17 02:25:19;;;;;;;4.22;2.00;;;;;;;;;;4989970;28;20641;-73
2023/04/17 02:27:45;;;;;;;3.63;1.83;;;;;;;;;;4990016;28;20411;-73
2023/04/17 02:30:11;;;;;;;5.25;2.20;;;;;;;;;;4989886;28;20073;-74
2023/04/17 02:32:36;;;;;;;5.30;1.98;;;;;;;;;;4989834;28;20062;-70
2023/04/17 02:35:02;;;;;;;3.70;1.85;;;;;;;;;;4989732;28;20056;-74
2023/04/17 02:37:27;;;;;;;4.55;2.05;;;;;;;;;;4989879;28;20038;-71
2023/04/17 02:39:53;;;;;;;4.82;1.90;;;;;;;;;;4990053;28;20030;-74
2023/04/17 02:42:18;;;;;;;6.10;2.22;;;;;;;;;;4991848;28;20038;-73
2023/04/17 02:44:45;;;;;;;4.95;2.10;;;;;;;;;;4993836;28;20030;-73
2023/04/17 02:47:11;;;;;;;3.42;2.10;;;;;;;;;;4993821;28;20026;-72
2023/04/17 02:49:36;;;;;;;6.38;2.33;;;;;;;;;;4993457;28;20022;-73
2023/04/17 02:52:02;;;;;;;3.08;1.90;;;;;;;;;;4993716;28;20034;-70
2023/04/17 02:54:27;;;;;;;3.80;2.05;;;;;;;;;;4993416;28;20037;-73
2023/04/17 02:56:57;;;;;;;4.53;2.15;;;;;;;;;;4993653;28;20026;-73
2023/04/17 02:59:22;;;;;;;3.90;1.98;;;;;;;;;;4993935;28;20038;-74
2023/04/17 03:01:48;;;;;;;3.85;2.00;;;;;;;;;;4993654;28;20030;-73
2023/04/17 03:04:13;;;;;;;4.63;2.05;;;;;;;;;;4993455;28;20030;-74
2023/04/17 03:06:38;;;;;;;4.05;1.70;;;;;;;;;;4993441;28;20034;-74
2023/04/17 03:09:04;;;;;;;2.83;1.70;;;;;;;;;;4993008;28;20122;-73
2023/04/17 03:11:29;;;;;;;4.18;1.88;;;;;;;;;;4993420;28;20084;-73
2023/04/17 03:13:55;;;;;;;4.03;2.08;;;;;;;;;;4992987;28;20026;-74
2023/04/17 03:16:20;;;;;;;4.13;2.22;;;;;;;;;;4993429;28;20089;-71
2023/04/17 03:18:45;;;;;;;4.40;2.03;;;;;;;;;;4993389;28;20386;-73
2023/04/17 03:21:11;;;;;;;4.03;1.90;;;;;;;;;;4993175;28;20030;-73
2023/04/17 03:23:36;;;;;;;2.63;1.83;;;;;;;;;;4993163;28;20030;-74
2023/04/17 03:26:01;;;;;;;4.32;1.75;;;;;;;;;;4992807;28;20019;-74
2023/04/17 03:28:27;;;;;;;3.67;1.92;;;;;;;;;;4992761;28;20453;-73
2023/04/17 03:30:54;;;;;;;5.47;1.90;;;;;;;;;;4992912;28;20027;-71
2023/04/17 03:33:19;;;;;;;4.07;1.75;;;;;;;;;;4993040;28;20031;-73
2023/04/17 03:35:45;;;;;;;2.95;1.80;;;;;;;;;;4992870;28;20133;-74
2023/04/17 03:38:10;;;;;;;3.90;1.90;;;;;;;;;;4993144;28;20022;-73
2023/04/17 03:40:36;;;;;;;3.92;2.05;;;;;;;;;;4992799;28;20040;-73
2023/04/17 03:43:01;;;;;;;4.10;1.90;;;;;;;;;;4992515;28;20058;-74
2023/04/17 03:45:27;;;;;;;3.33;1.90;;;;;;;;;;4992700;28;20114;-74
2023/04/17 03:47:52;;;;;;;4.03;1.90;;;;;;;;;;5007695;28;20455;-72
2023/04/17 03:50:17;;;;;;;3.42;1.88;;;;;;;;;;4992424;28;20070;-71
2023/04/17 03:52:43;;;;;;;3.05;1.77;;;;;;;;;;4992320;28;20490;-74
2023/04/17 03:55:09;;;;;;;7.07;2.28;;;;;;;;;;4992133;28;20030;-68
2023/04/17 03:57:35;;;;;;;2.70;1.92;;;;;;;;;;4992555;28;20030;-73
2023/04/17 04:00:00;;;;;;;3.75;2.20;;;;;;;;;;4992299;28;20023;-73
2023/04/17 04:02:26;;;;;;;2.97;1.90;;;;;;;;;;4992412;28;20026;-73
2023/04/17 04:04:52;;;;;;;3.45;1.90;;;;;;;;;;4992129;28;20034;-69
2023/04/17 04:07:17;;;;;;;3.88;2.00;;;;;;;;;;4992132;28;20029;-69
2023/04/17 04:09:43;;;;;;;3.78;1.90;;;;;;;;;;4992450;28;20030;-73
2023/04/17 04:12:08;;;;;;;4.05;2.10;;;;;;;;;;4992288;28;20033;-72
2023/04/17 04:14:34;;;;;;;5.88;2.00;;;;;;;;;;4992031;28;20061;-74
2023/04/17 04:16:59;;;;;;;6.22;2.17;;;;;;;;;;4992155;28;20469;-73
2023/04/17 04:19:25;;;;;;;4.07;2.20;;;;;;;;;;4992073;28;20077;-73
2023/04/17 04:21:52;;;;;;;4.22;2.10;;;;;;;;;;4992003;28;20027;-73
2023/04/17 04:24:19;;;;;;;3.40;1.92;;;;;;;;;;4991899;28;20026;-73
2023/04/17 04:26:48;;;;;;;5.57;1.90;;;;;;;;;;4991898;28;20466;-73
2023/04/17 04:29:14;;;;;;;4.75;2.15;;;;;;;;;;4991868;28;20394;-73
2023/04/17 04:31:40;;;;;;;4.22;2.15;;;;;;;;;;4991970;28;20109;-73
2023/04/17 04:34:06;;;;;;;3.40;1.73;;;;;;;;;;4991844;28;20093;-73
2023/04/17 04:36:34;;;;;;;2.97;2.00;;;;;;;;;;4991478;28;20085;-72
2023/04/17 04:39:00;;;;;;;4.10;1.95;;;;;;;;;;4991634;28;20153;-73
2023/04/17 04:41:26;;;;;;;4.00;2.38;;;;;;;;;;4991733;28;20026;-73
2023/04/17 04:43:53;;;;;;;4.75;2.10;;;;;;;;;;4991469;28;20495;-73
2023/04/17 04:46:18;;;;;;;4.57;2.45;;;;;;;;;;4991565;28;20034;-73
2023/04/17 04:48:44;;;;;;;5.57;2.30;;;;;;;;;;4991674;28;20023;-72
2023/04/17 04:51:09;;;;;;;5.63;2.67;;;;;;;;;;4991443;28;20168;-70
2023/04/17 04:53:37;;;;;;;5.30;2.78;;;;;;;;;;4991403;28;20023;-73
2023/04/17 04:56:03;;;;;;;3.90;2.40;;;;;;;;;;4991145;28;20034;-71
2023/04/17 04:58:28;;;;;;;6.45;2.67;;;;;;;;;;4991261;28;20033;-70
2023/04/17 05:00:55;;;;;;;6.05;2.90;;;;;;;;;;4991474;28;20096;-68
2023/04/17 05:03:21;;;;;;;6.78;2.72;;;;;;;;;;4991395;28;20026;-72
2023/04/17 05:05:49;;;;;;;5.00;2.90;;;;;;;;;;4991160;28;20021;-70
2023/04/17 05:08:14;;;;;;;5.15;2.60;;;;;;;;;;4991058;28;20088;-64
2023/04/17 05:10:40;;;;;;;7.13;3.00;;;;;;;;;;4991086;28;20026;-63
2023/04/17 05:13:05;;;;;;;8.18;2.67;;;;;;;;;;4991123;28;20589;-71
2023/04/17 05:15:31;;;;;;;4.60;2.70;;;;;;;;;;4990816;28;20446;-72
2023/04/17 05:17:56;;;;;;;5.68;2.60;;;;;;;;;;4990924;28;20026;-69
2023/04/17 05:20:22;;;;;;;6.05;2.70;;;;;;;;;;4991003;28;20069;-73
2023/04/17 05:22:48;;;;;;;3.67;2.60;;;;;;;;;;4990977;28;20680;-72
2023/04/17 05:25:15;;;;;;;5.07;2.90;;;;;;;;;;4990982;28;20121;-71
2023/04/17 05:27:40;;;;;;;6.57;2.78;;;;;;;;;;4990641;28;20114;-73
2023/04/17 05:30:06;;;;;;;5.93;2.88;;;;;;;;;;4990531;28;20140;-73
2023/04/17 05:32:33;;;;;;;5.65;2.63;;;;;;;;;;4990674;28;20038;-72
2023/04/17 05:34:59;;;;;;;5.60;3.17;;;;;;;;;;4990577;28;20044;-73
2023/04/17 05:37:24;;;;;;;6.28;3.10;;;;;;;;;;4990681;28;20026;-69
2023/04/17 05:39:50;;;;;;;5.20;3.00;;;;;;;;;;4990618;28;20045;-73
2023/04/17 05:42:15;;;;;;;5.22;2.90;;;;;;;;;;4990396;28;20042;-72
2023/04/17 05:44:41;;;;;;;5.18;3.47;;;;;;;;;;4990556;28;20054;-73
2023/04/17 05:47:06;;;;;;;5.95;2.90;;;;;;;;;;4990367;28;20069;-73
2023/04/17 05:49:32;;;;;;;5.50;3.20;;;;;;;;;;4990212;28;20473;-72
2023/04/17 05:51:57;;;;;;;4.60;3.00;;;;;;;;;;4990449;28;20742;-73
2023/04/17 05:54:22;;;;;;;6.60;2.90;;;;;;;;;;4990436;28;20069;-73
2023/04/17 05:56:48;;;;;;;7.40;3.40;;;;;;;;;;4990174;28;20457;-72
2023/04/17 05:59:14;;;;;;;7.00;3.67;;;;;;;;;;4990408;28;20386;-71
2023/04/17 06:01:39;;;;;;;5.32;2.78;;;;;;;;;;4990273;28;20026;-73
2023/04/17 06:04:05;;;;;;;7.25;3.03;;;;;;;;;;4990284;28;20026;-69
2023/04/17 06:06:30;;;;;;;5.18;2.83;;;;;;;;;;4989874;28;20030;-74
2023/04/17 06:08:56;;;;;;;6.50;3.15;;;;;;;;;;4989897;28;20112;-73
2023/04/17 06:11:22;;;;;;;6.57;3.25;;;;;;;;;;4990233;28;20027;-74
2023/04/17 06:13:47;;;;;;;5.32;3.13;;;;;;;;;;4990004;28;20052;-66
2023/04/17 06:16:12;;;;;;;8.57;3.10;;;;;;;;;;4989629;28;20026;-74
2023/04/17 06:18:38;;;;;;;5.55;3.30;;;;;;;;;;4990078;28;20030;-73
2023/04/17 06:21:08;;;;;;;5.68;3.20;;;;;;;;;;4990059;28;20029;-71
2023/04/17 06:23:33;;;;;;;5.00;3.17;;;;;;;;;;4990160;28;20072;-72
2023/04/17 06:25:58;;;;;;;6.80;3.60;;;;;;;;;;4989739;28;20509;-72
2023/04/17 06:28:24;;;;;;;8.32;3.35;;;;;;;;;;4989912;28;20050;-73
2023/04/17 06:30:49;;;;;;;5.68;3.28;;;;;;;;;;4989930;28;20061;-70
2023/04/17 06:33:15;;;;;;;6.45;3.33;;;;;;;;;;4990060;28;20378;-72
2023/04/17 06:35:40;;;;;;;11.00;3.75;;;;;;;;;;4989852;28;20145;-73
2023/04/17 06:38:06;;;;;;;6.30;3.60;;;;;;;;;;4989730;28;20072;-72
2023/04/17 06:40:32;;;;;;;4.93;2.90;;;;;;;;;;4989729;28;20509;-73
2023/04/17 06:42:57;;;;;;;9.45;3.55;;;;;;;;;;4989603;28;20166;-69
2023/04/17 06:45:23;;;;;;;7.00;3.70;;;;;;;;;;4989628;28;20033;-61
2023/04/17 06:47:48;;;;;;;6.80;3.72;;;;;;;;;;4989790;28;20045;-61
2023/04/17 06:50:15;;;;;;;5.88;3.60;;;;;;;;;;4989777;28;20046;-62
2023/04/17 06:52:41;;;;;;;7.05;3.50;;;;;;;;;;4989770;28;20093;-61
2023/04/17 06:55:07;;;;;;;6.20;3.50;;;;;;;;;;4989768;28;20367;-61
2023/04/17 06:57:32;;;;;;;7.70;4.10;;;;;;;;;;4989361;28;20100;-61
2023/04/17 06:59:58;;;;;;;8.90;3.78;;;;;;;;;;4989644;28;20066;-65
2023/04/17 07:02:23;;;;;;;7.13;4.15;;;;;;;;;;4989623;28;20129;-68
2023/04/17 07:04:49;;;;;;;8.45;3.92;;;;;;;;;;4989597;28;20113;-61
2023/04/17 07:07:14;;;;;;;9.82;4.22;;;;;;;;;;4989328;28;20022;-69
2023/04/17 07:09:41;;;;;;;9.00;4.30;;;;;;;;;;4989509;28;20034;-62
2023/04/17 07:12:07;;;;;;;9.73;4.30;;;;;;;;;;4989371;28;20550;-68
2023/04/17 07:14:34;;;;;;;8.98;4.45;;;;;;;;;;4990741;28;20054;-78
2023/04/17 07:17:00;;;;;;;7.72;4.15;;;;;;;;;;4990573;28;20070;-81
2023/04/17 07:19:25;;;;;;;5.78;3.75;;;;;;;;;;4989604;28;20054;-79
2023/04/17 07:21:51;;;;;;;8.68;4.13;;;;;;;;;;4993704;28;20287;-75
2023/04/17 07:24:16;;;;;;;8.05;3.40;;;;;;;;;;5000772;28;20451;-78
2023/04/17 07:26:42;;;;;;;7.00;3.60;;;;;;;;;;5000202;28;20054;-80
2023/04/17 07:29:07;;;;;;;6.55;3.15;;;;;;;;;;4994811;28;20497;-78
2023/04/17 07:31:33;;;;;;;5.85;3.25;;;;;;;;;;4993159;28;20112;-83
2023/04/17 07:33:59;;;;;;;5.97;3.47;;;;;;;;;;4992912;28;20026;-89
2023/04/17 07:36:26;;;;;;;5.45;3.40;;;;;;;;;;4992829;28;20031;-76
2023/04/17 07:38:51;;;;;;;7.95;3.38;;;;;;;;;;4993269;28;20026;-89
2023/04/17 07:41:17;;;;;;;7.60;3.53;;;;;;;;;;4993171;28;20445;-81
2023/04/17 07:43:42;;;;;;;7.70;4.00;;;;;;;;;;4992795;28;20054;-80
2023/04/17 07:46:07;;;;;;;6.10;2.83;;;;;;;;;;4993518;28;20034;-80
2023/04/17 07:48:33;;;;;;;7.75;3.33;;;;;;;;;;4992669;28;20069;-78
2023/04/17 07:51:02;;;;;;;7.95;3.35;;;;;;;;;;4992225;28;20038;-71
2023/04/17 07:53:28;;;;;;;5.13;3.10;;;;;;;;;;5007547;28;20042;-86
2023/04/17 07:55:57;;;;;;;6.47;3.35;;;;;;;;;;4993206;28;20026;-89
2023/04/17 07:58:22;;;;;;;6.95;3.30;;;;;;;;;;4993080;28;20034;-90
2023/04/17 08:00:49;;;;;;;6.47;3.38;;;;;;;;;;4992991;28;20097;-80
2023/04/17 08:03:15;;;;;;;7.53;3.60;;;;;;;;;;4992477;28;20038;-83
2023/04/17 08:05:41;;;;;;;8.57;3.30;;;;;;;;;;5007305;28;20025;-78
2023/04/17 08:08:06;;;;;;;5.63;3.00;;;;;;;;;;4993879;28;20465;-77
2023/04/17 08:10:32;;;;;;;4.97;3.00;;;;;;;;;;5007343;28;20026;-86
2023/04/17 08:13:00;;;;;;;6.80;3.13;;;;;;;;;;5007188;28;20109;-82
2023/04/17 08:15:25;;;;;;;8.43;3.78;;;;;;;;;;5007203;28;20520;-83
2023/04/17 08:17:50;;;;;;;5.55;3.55;;;;;;;;;;4992019;28;20027;-82
2023/04/17 08:20:17;;;;;;;8.05;3.55;;;;;;;;;;5014154;23;20054;-75
2023/04/17 08:22:44;;;;;;;7.15;3.53;;;;;;;;;;5014632;28;20049;-72
2023/04/17 08:25:11;;;;;;;6.05;3.45;;;;;;;;;;5013405;28;20026;-74
2023/04/17 08:27:40;;;;;;;10.02;3.75;;;;;;;;;;5010766;28;20484;-74
2023/04/17 08:30:08;;;;;;;8.65;3.42;;;;;;;;;;5011060;28;20072;-73
2023/04/17 08:32:40;;;;;;;8.68;3.65;;;;;;;;;;5013555;28;20029;-74
2023/04/17 08:35:11;;;;;;;9.85;3.55;;;;;;;;;;5016922;28;20085;-73
2023/04/17 08:37:37;;;;;;;8.20;3.63;;;;;;;;;;5012792;28;20486;-72
2023/04/17 08:40:05;;;;;;;6.38;3.28;;;;;;;;;;5015622;28;20116;-73
2023/04/17 08:42:34;;;;;;;7.25;3.40;;;;;;;;;;5010737;28;20060;-70
2023/04/17 08:45:03;;;;;;;6.35;3.50;;;;;;;;;;5011437;28;20429;-75
2023/04/17 08:47:29;;;;;;;8.02;3.42;;;;;;;;;;5011843;28;20053;-71
2023/04/17 08:49:56;;;;;;;5.88;3.10;;;;;;;;;;5010679;28;20068;-71
2023/04/17 08:52:22;;;;;;;7.15;3.42;;;;;;;;;;5011018;28;20034;-72
2023/04/17 08:54:48;;;;;;;7.03;3.70;;;;;;;;;;5012371;28;20022;-74
2023/04/17 08:57:13;;;;;;;6.72;3.40;;;;;;;;;;5010243;28;20411;-76
2023/04/17 08:59:41;;;;;;;7.97;3.63;;;;;;;;;;4994260;28;20022;-77
2023/04/17 09:02:07;;;;;;;7.20;3.28;;;;;;;;;;5012767;28;20061;-73
2023/04/17 09:04:46;;;;;;;6.32;3.42;;;;;;;;;;5010357;28;20083;-75
2023/04/17 09:07:14;;;;;;;8.38;3.90;;;;;;;;;;5010292;28;20036;-77
2023/04/17 09:09:54;;;;;;;6.55;2.97;;;;;;;;;;5011733;28;20077;-74
2023/04/17 09:12:21;;;;;;;5.90;3.15;;;;;;;;;;5017058;28;20029;-76
2023/04/17 09:14:48;;;;;;;7.40;3.20;;;;;;;;;;5014184;28;20034;-75
2023/04/17 09:17:16;;;;;;;6.53;3.20;;;;;;;;;;5009995;28;20053;-75
2023/04/17 09:20:08;;;;;;;7.57;3.78;;;;;;;;;;5009880;28;20046;-77
2023/04/17 09:22:35;;;;;;;8.05;3.40;;;;;;;;;;5010360;28;20547;-76
2023/04/17 09:25:01;;;;;;;7.75;3.28;;;;;;;;;;5010541;28;20609;-72
2023/04/17 09:27:28;;;;;;;7.05;3.33;;;;;;;;;;5009797;28;20026;-74
2023/04/17 09:30:04;;;;;;;6.03;3.47;;;;;;;;;;5012867;28;20034;-78
2023/04/17 09:32:31;;;;;;;7.05;3.50;;;;;;;;;;5011850;28;20077;-76
2023/04/17 09:34:59;;;;;;;5.90;3.50;;;;;;;;;;4999135;28;20030;-75
2023/04/17 09:37:26;;;;;;;6.15;3.28;;;;;;;;;;5017449;28;20048;-76
2023/04/17 09:39:59;;;;;;;5.68;3.50;;;;;;;;;;5012397;28;20585;-76
2023/04/17 09:42:27;;;;;;;6.95;3.22;;;;;;;;;;5009712;28;20062;-77
2023/04/17 09:44:53;;;;;;;6.43;3.40;;;;;;;;;;5010055;28;20428;-76
2023/04/17 09:47:20;;;;;;;6.95;3.58;;;;;;;;;;5008589;28;20212;-74
2023/04/17 09:49:54;;;;;;;6.05;3.15;;;;;;;;;;5008275;28;20507;-75
2023/04/17 09:52:24;;;;;;;7.05;3.05;;;;;;;;;;5007382;28;20030;-75
2023/04/17 09:54:52;;;;;;;5.10;3.47;;;;;;;;;;5008138;28;20026;-75
2023/04/17 09:57:18;;;;;;;6.15;3.25;;;;;;;;;;5007563;28;20025;-76
2023/04/17 09:59:47;;;;;;;5.53;3.28;;;;;;;;;;5007854;28;20034;-76
2023/04/17 10:02:15;;;;;;;5.10;2.78;;;;;;;;;;5008663;28;20026;-76
2023/04/17 10:04:42;;;;;;;5.72;2.83;;;;;;;;;;5009605;28;20065;-76
2023/04/17 10:07:07;;;;;;;6.68;2.97;;;;;;;;;;5009257;28;20556;-77
2023/04/17 10:09:33;;;;;;;4.65;2.80;;;;;;;;;;5009514;28;20030;-77
2023/04/17 10:12:01;;;;;;;5.60;2.70;;;;;;;;;;5009484;28;20050;-77
2023/04/17 10:14:31;;;;;;;4.45;2.78;;;;;;;;;;5009202;28;20064;-78
2023/04/17 10:16:56;;;;;;;4.97;2.90;;;;;;;;;;5008986;28;20029;-76
2023/04/17 10:19:33;;;;;;;5.18;2.47;;;;;;;;;;5009182;28;20393;-75
2023/04/17 10:22:19;;;;;;;5.75;2.67;;;;;;;;;;5009652;28;20030;-76
2023/04/17 10:24:47;;;;;;;4.18;2.40;;;;;;;;;;5009357;28;20097;-76
2023/04/17 10:27:25;;;;;;;4.43;2.30;;;;;;;;;;5009041;28;20096;-76
2023/04/17 10:30:01;;;;;;;5.60;2.75;;;;;;;;;;5009253;28;20101;-75
2023/04/17 10:32:28;;;;;;;5.63;2.38;;;;;;;;;;5009326;28;20105;-75
2023/04/17 10:35:00;;;;;;;4.32;2.40;;;;;;;;;;5009128;28;20101;-77
2023/04/17 10:37:51;;;;;;;4.03;2.25;;;;;;;;;;5009181;28;20127;-77
2023/04/17 10:40:25;;;;;;;4.22;2.30;;;;;;;;;;5009165;28;20123;-77
2023/04/17 10:43:10;;;;;;;5.07;2.63;;;;;;;;;;5008943;28;20109;-76
2023/04/17 10:46:00;;;;;;;4.22;2.40;;;;;;;;;;5009158;28;20026;-75
2023/04/17 10:48:37;;;;;;;4.20;2.67;;;;;;;;;;5008898;28;20053;-76
2023/04/17 10:51:21;;;;;;;4.00;2.28;;;;;;;;;;5008994;28;20137;-78
2023/04/17 10:53:54;;;;;;;4.53;2.35;;;;;;;;;;5008994;28;20054;-76
2023/04/17 10:56:44;;;;;;;4.97;2.13;;;;;;;;;;5009063;28;20022;-78
2023/04/17 10:59:12;;;;;;;5.45;2.33;;;;;;;;;;5008852;28;20021;-76
2023/04/17 11:01:46;;;;;;;5.72;2.40;;;;;;;;;;5009065;28;20497;-75
2023/04/17 11:04:32;;;;;;;5.50;2.50;;;;;;;;;;5012332;28;20030;-75
2023/04/17 11:06:59;;;;;;;3.53;2.08;;;;;;;;;;5012159;28;20040;-75
2023/04/17 11:09:26;;;;;;;4.05;2.30;;;;;;;;;;5012519;28;20136;-76
2023/04/17 11:11:53;;;;;;;4.22;2.30;;;;;;;;;;5012590;28;20030;-76
2023/04/17 11:14:21;;;;;;;3.53;2.30;;;;;;;;;;5012634;28;20022;-78
2023/04/17 11:16:48;;;;;;;3.17;2.30;;;;;;;;;;5012666;28;20544;-76
2023/04/17 11:19:21;;;;;;;4.30;2.70;;;;;;;;;;5012441;28;20652;-74
2023/04/17 11:21:51;;;;;;;3.53;2.20;;;;;;;;;;5012581;28;20048;-76
2023/04/17 11:24:23;;;;;;;5.25;2.13;;;;;;;;;;5012281;28;20048;-77
2023/04/17 11:26:49;;;;;;;3.05;2.20;;;;;;;;;;5012179;28;20535;-76
2023/04/17 11:29:15;;;;;;;4.68;2.50;;;;;;;;;;5012182;28;20033;-74
2023/04/17 11:31:41;;;;;;;3.40;2.25;;;;;;;;;;5012465;28;20393;-76
2023/04/17 11:34:08;;;;;;;5.00;2.55;;;;;;;;;;5012275;28;20022;-74
2023/04/17 11:36:34;;;;;;;5.78;2.42;;;;;;;;;;5012086;28;20025;-73
2023/04/17 11:38:59;;;;;;;3.28;2.00;;;;;;;;;;5012191;28;20033;-76
2023/04/17 11:41:35;;;;;;;4.57;2.30;;;;;;;;;;5011832;28;20026;-76
2023/04/17 11:44:00;;;;;;;3.35;2.45;;;;;;;;;;4994290;28;20029;-77
2023/04/17 11:46:26;;;;;;;4.18;2.60;;;;;;;;;;5012037;28;20022;-78
2023/04/17 11:48:51;;;;;;;3.75;2.40;;;;;;;;;;5012192;28;20408;-76
2023/04/17 11:51:17;;;;;;;4.75;2.40;;;;;;;;;;5012016;28;20084;-79
2023/04/17 11:53:49;;;;;;;3.97;2.30;;;;;;;;;;5012191;28;20029;-78
2023/04/17 11:56:17;;;;;;;3.35;2.38;;;;;;;;;;5011876;28;20091;-77
2023/04/17 11:58:47;;;;;;;4.40;2.10;;;;;;;;;;5011430;28;20026;-77
2023/04/17 12:01:13;;;;;;;3.67;2.28;;;;;;;;;;5011539;28;20374;-76
2023/04/17 12:03:39;;;;;;;4.70;2.30;;;;;;;;;;5011737;28;20544;-76
2023/04/17 12:06:05;;;;;;;3.13;2.03;;;;;;;;;;5011736;28;20058;-76
2023/04/17 12:08:46;;;;;;;3.28;2.20;;;;;;;;;;4994358;28;20113;-76
2023/04/17 12:11:26;;;;;;;4.47;2.08;;;;;;;;;;5011746;28;20029;-73
2023/04/17 12:13:55;;;;;;;3.37;2.20;;;;;;;;;;5011134;28;20030;-77
2023/04/17 12:16:25;;;;;;;4.65;2.00;;;;;;;;;;5011078;28;20098;-75
2023/04/17 12:18:51;;;;;;;3.75;2.30;;;;;;;;;;5011350;28;20026;-75
2023/04/17 12:21:19;;;;;;;3.83;2.17;;;;;;;;;;5011116;28;20125;-77
2023/04/17 12:23:44;;;;;;;5.88;2.17;;;;;;;;;;5011418;28;20541;-76
2023/04/17 12:26:10;;;;;;;4.72;2.20;;;;;;;;;;5011321;28;20125;-76
2023/04/17 12:28:35;;;;;;;2.85;2.00;;;;;;;;;;5011201;28;20034;-77
2023/04/17 12:31:01;;;;;;;3.53;2.00;;;;;;;;;;5011289;28;20037;-78
2023/04/17 12:33:27;;;;;;;3.55;2.00;;;;;;;;;;5011232;28;20102;-75
2023/04/17 12:35:52;;;;;;;3.22;2.10;;;;;;;;;;5011185;28;20118;-76
2023/04/17 12:38:18;;;;;;;3.30;1.90;;;;;;;;;;5010803;28;20058;-77
2023/04/17 12:40:44;;;;;;;2.97;1.95;;;;;;;;;;5010978;28;20122;-76
2023/04/17 12:43:10;;;;;;;2.80;2.00;;;;;;;;;;5010876;28;20029;-76
2023/04/17 12:45:36;;;;;;;3.28;1.95;;;;;;;;;;5011192;28;20034;-78
2023/04/17 12:48:06;;;;;;;3.35;1.90;;;;;;;;;;5010712;28;20034;-77
2023/04/17 12:50:32;;;;;;;5.25;2.10;;;;;;;;;;5012331;28;20025;-77
2023/04/17 12:52:57;;;;;;;2.70;1.80;;;;;;;;;;5016867;28;20052;-80
2023/04/17 12:55:25;;;;;;;3.30;1.95;;;;;;;;;;5016011;28;20049;-77
2023/04/17 12:57:51;;;;;;;3.60;2.08;;;;;;;;;;5015144;28;20112;-77
2023/04/17 13:00:17;;;;;;;4.43;2.00;;;;;;;;;;5017654;28;20034;-78
2023/04/17 13:02:42;;;;;;;3.85;1.95;;;;;;;;;;5012229;28;20080;-79
2023/04/17 13:05:08;;;;;;;4.68;2.00;;;;;;;;;;5013574;28;20413;-76
2023/04/17 13:07:33;;;;;;;3.45;1.92;;;;;;;;;;5010579;28;20022;-79
2023/04/17 13:09:58;;;;;;;3.53;1.90;;;;;;;;;;5012197;28;20079;-77
2023/04/17 13:12:25;;;;;;;3.10;1.90;;;;;;;;;;5011201;28;20099;-79
2023/04/17 13:14:50;;;;;;;2.90;1.80;;;;;;;;;;5011977;28;20022;-78
2023/04/17 13:17:16;;;;;;;4.35;1.88;;;;;;;;;;5010226;28;20026;-79
2023/04/17 13:19:41;;;;;;;2.90;1.70;;;;;;;;;;5010090;28;20583;-78
2023/04/17 13:22:07;;;;;;;3.75;1.80;;;;;;;;;;5015671;28;20029;-77
2023/04/17 13:24:33;;;;;;;3.10;1.77;;;;;;;;;;4998509;28;20034;-74
2023/04/17 13:27:00;;;;;;;3.15;1.88;;;;;;;;;;5012069;28;20032;-77
2023/04/17 13:29:26;;;;;;;3.47;1.80;;;;;;;;;;5014916;28;20034;-77
2023/04/17 13:31:51;;;;;;;4.22;1.65;;;;;;;;;;5010085;28;20038;-77
2023/04/17 13:34:16;;;;;;;2.42;1.70;;;;;;;;;;5010158;28;20030;-75
2023/04/17 13:36:43;;;;;;;2.88;1.77;;;;;;;;;;5010231;28;20032;-76
2023/04/17 13:39:09;;;;;;;2.35;1.38;;;;;;;;;;5038064;23;20140;-71
2023/04/17 13:41:35;;;;;;;2.95;1.70;;;;;;;;;;5049434;28;20476;-70
2023/04/17 13:44:01;;;;;;;2.58;1.73;;;;;;;;;;5049710;28;20021;-71
2023/04/17 13:46:26;;;;;;;3.20;1.63;;;;;;;;;;5049452;28;20032;-70
2023/04/17 13:48:52;;;;;;;4.03;1.92;;;;;;;;;;5049452;28;20017;-72
2023/04/17 13:51:17;;;;;;;3.03;1.88;;;;;;;;;;5049414;28;20082;-71
2023/04/17 13:53:43;;;;;;;4.88;1.83;;;;;;;;;;5049288;28;20025;-71
2023/04/17 13:56:09;;;;;;;2.80;1.70;;;;;;;;;;5049311;28;20020;-72
2023/04/17 13:58:34;;;;;;;3.28;1.58;;;;;;;;;;5049093;28;20104;-70
2023/04/17 14:01:00;;;;;;;2.70;1.70;;;;;;;;;;5049302;28;20025;-71
2023/04/17 14:03:26;;;;;;;2.35;1.70;;;;;;;;;;5031292;28;20061;-70
2023/04/17 14:05:51;;;;;;;3.28;1.70;;;;;;;;;;5048994;28;20024;-70
2023/04/17 14:08:17;;;;;;;2.63;1.70;;;;;;;;;;5049255;28;20033;-71
2023/04/17 14:10:43;;;;;;;2.65;1.70;;;;;;;;;;5049198;28;20017;-70
2023/04/17 14:13:08;;;;;;;2.67;1.67;;;;;;;;;;5049012;28;20025;-71
2023/04/17 14:15:33;;;;;;;3.33;1.60;;;;;;;;;;5049176;28;20032;-71
2023/04/17 14:17:59;;;;;;;4.13;1.70;;;;;;;;;;5049033;28;20481;-71
2023/04/17 14:20:24;;;;;;;2.72;1.88;;;;;;;;;;5048843;28;20033;-71
2023/04/17 14:22:51;;;;;;;2.10;1.63;;;;;;;;;;5048940;28;20033;-72
2023/04/17 14:25:17;;;;;;;5.15;1.48;;;;;;;;;;5031000;28;20025;-71
2023/04/17 14:27:42;;;;;;;3.75;1.83;;;;;;;;;;5048971;28;20025;-71
2023/04/17 14:30:08;;;;;;;2.65;1.60;;;;;;;;;;5048906;28;20033;-71
2023/04/17 14:32:34;;;;;;;2.60;1.58;;;;;;;;;;5049047;28;20029;-72
2023/04/17 14:35:00;;;;;;;3.65;1.77;;;;;;;;;;5049116;28;20031;-70
2023/04/17 14:37:26;;;;;;;3.05;1.70;;;;;;;;;;5049312;28;20495;-70
2023/04/17 14:39:52;;;;;;;2.53;1.50;;;;;;;;;;5052661;28;20052;-72
2023/04/17 14:42:17;;;;;;;5.70;1.67;;;;;;;;;;5052863;28;20104;-73